createdAt,value
2022-10-11T00:01:43.700Z,69.08
2022-10-11T00:04:10.683Z,69.21
2022-10-11T00:06:38.457Z,69.00
2022-10-11T00:09:06.040Z,69.04
2022-10-11T00:11:32.954Z,69.07
2022-10-11T00:13:59.510Z,69.21
2022-10-11T00:16:26.079Z,69.34
2022-10-11T00:18:52.745Z,69.21
2022-10-11T00:21:21.132Z,69.35
2022-10-11T00:23:49.270Z,69.23
2022-10-11T00:26:16.555Z,69.36
2022-10-11T00:28:43.322Z,69.41
2022-10-11T00:31:13.740Z,69.33
2022-10-11T00:33:40.442Z,69.23
2022-10-11T00:36:08.919Z,69.46
2022-10-11T00:38:35.837Z,69.48
2022-10-11T00:41:02.574Z,69.41
2022-10-11T00:43:31.187Z,69.22
2022-10-11T00:45:57.658Z,69.53
2022-10-11T00:48:31.893Z,69.30
2022-10-11T00:51:01.453Z,69.41
2022-10-11T00:53:32.584Z,69.38
2022-10-11T00:56:13.340Z,69.46
2022-10-11T00:58:42.223Z,69.28
2022-10-11T01:01:09.335Z,69.50
2022-10-11T01:03:38.098Z,69.34
2022-10-11T01:06:05.551Z,69.50
2022-10-11T01:08:32.862Z,69.53
2022-10-11T01:10:59.841Z,69.60
2022-10-11T01:13:56.335Z,69.28
2022-10-11T01:16:38.259Z,69.15
2022-10-11T01:19:47.522Z,69.50
2022-10-11T01:22:38.254Z,69.29
2022-10-11T01:25:16.629Z,69.40
2022-10-11T01:27:54.946Z,69.74
2022-10-11T01:30:23.225Z,69.46
2022-10-11T01:33:10.723Z,69.55
2022-10-11T01:35:46.356Z,69.55
2022-10-11T01:38:27.147Z,69.41
2022-10-11T01:40:59.831Z,69.51
2022-10-11T01:43:27.690Z,69.60
2022-10-11T01:45:57.536Z,69.75
2022-10-11T01:48:24.364Z,69.78
2022-10-11T01:50:54.697Z,69.66
2022-10-11T01:53:39.858Z,69.58
2022-10-11T01:56:22.785Z,69.72
2022-10-11T01:59:16.711Z,69.61
2022-10-11T02:01:56.635Z,69.64
2022-10-11T02:04:45.033Z,69.63
2022-10-11T02:07:14.374Z,69.51
2022-10-11T02:09:44.390Z,69.59
2022-10-11T02:12:16.010Z,69.71
2022-10-11T02:14:47.483Z,69.68
2022-10-11T02:17:19.268Z,69.84
2022-10-11T02:19:50.316Z,69.64
2022-10-11T02:22:24.585Z,69.76
2022-10-11T02:24:55.600Z,69.69
2022-10-11T02:27:25.795Z,69.74
2022-10-11T02:29:54.609Z,69.99
2022-10-11T02:32:25.494Z,69.88
2022-10-11T02:35:02.477Z,69.83
2022-10-11T02:37:50.694Z,69.82
2022-10-11T02:40:32.116Z,69.87
2022-10-11T02:43:03.530Z,70.07
2022-10-11T02:45:48.249Z,69.98
2022-10-11T02:48:15.625Z,70.01
2022-10-11T02:50:44.221Z,69.87
2022-10-11T02:53:11.146Z,70.05
2022-10-11T02:55:37.853Z,70.05
2022-10-11T02:58:04.398Z,69.92
2022-10-11T03:00:31.217Z,70.00
2022-10-11T03:02:57.902Z,69.70
2022-10-11T03:05:24.421Z,70.00
2022-10-11T03:07:51.131Z,69.91
2022-10-11T03:10:17.661Z,69.98
2022-10-11T03:12:44.239Z,69.73
2022-10-11T03:15:11.187Z,69.85
2022-10-11T03:17:37.805Z,69.84
2022-10-11T03:20:06.390Z,69.79
2022-10-11T03:22:33.199Z,69.82
2022-10-11T03:25:03.553Z,69.61
2022-10-11T03:27:32.074Z,69.66
2022-10-11T03:29:58.699Z,69.64
2022-10-11T03:32:25.774Z,69.48
2022-10-11T03:34:52.366Z,69.72
2022-10-11T03:37:19.152Z,69.72
2022-10-11T03:39:46.021Z,69.60
2022-10-11T03:42:13.728Z,69.68
2022-10-11T03:44:42.011Z,69.50
2022-10-11T03:47:09.089Z,69.63
2022-10-11T03:49:39.883Z,69.66
2022-10-11T03:52:09.182Z,69.67
2022-10-11T03:54:35.686Z,69.69
2022-10-11T03:57:02.245Z,69.70
2022-10-11T03:59:28.877Z,69.70
2022-10-11T04:01:55.518Z,69.58
2022-10-11T04:04:22.068Z,69.62
2022-10-11T04:06:48.613Z,69.96
2022-10-11T04:09:15.546Z,69.58
2022-10-11T04:11:42.358Z,69.87
2022-10-11T04:14:09.028Z,69.77
2022-10-11T04:16:38.580Z,69.82
2022-10-11T04:19:05.939Z,69.72
2022-10-11T04:21:32.555Z,69.79
2022-10-11T04:23:59.408Z,69.68
2022-10-11T04:26:26.024Z,69.54
2022-10-11T04:28:52.725Z,69.94
2022-10-11T04:31:19.495Z,69.62
2022-10-11T04:33:46.182Z,69.81
2022-10-11T04:36:12.868Z,69.76
2022-10-11T04:38:39.521Z,69.73
2022-10-11T04:41:10.997Z,69.52
2022-10-11T04:43:37.946Z,69.65
2022-10-11T04:46:05.989Z,69.52
2022-10-11T04:48:33.096Z,69.62
2022-10-11T04:50:59.622Z,69.47
2022-10-11T04:53:26.124Z,69.73
2022-10-11T04:56:05.549Z,69.50
2022-10-11T04:58:33.908Z,69.71
2022-10-11T05:01:01.245Z,69.60
2022-10-11T05:03:28.265Z,69.69
2022-10-11T05:05:54.879Z,69.72
2022-10-11T05:08:23.198Z,69.57
2022-10-11T05:11:07.674Z,69.69
2022-10-11T05:13:35.054Z,69.68
2022-10-11T05:16:05.952Z,69.63
2022-10-11T05:18:36.786Z,70.13
2022-10-11T05:21:07.018Z,69.80
2022-10-11T05:23:35.283Z,69.81
2022-10-11T05:26:03.239Z,69.86
2022-10-11T05:28:30.322Z,69.74
2022-10-11T05:30:56.991Z,69.93
2022-10-11T05:33:24.066Z,70.08
2022-10-11T05:35:50.906Z,69.89
2022-10-11T05:38:17.848Z,69.94
2022-10-11T05:40:44.668Z,69.82
2022-10-11T05:43:11.616Z,69.96
2022-10-11T05:45:40.570Z,69.72
2022-10-11T05:48:07.886Z,70.06
2022-10-11T05:50:35.369Z,69.92
2022-10-11T05:53:03.023Z,70.16
2022-10-11T05:55:29.721Z,70.05
2022-10-11T05:57:57.421Z,70.07
2022-10-11T06:00:24.672Z,70.09
2022-10-11T06:02:51.294Z,70.11
2022-10-11T06:05:18.479Z,69.74
2022-10-11T06:07:45.051Z,70.28
2022-10-11T06:10:11.920Z,70.35
2022-10-11T06:12:38.902Z,70.37
2022-10-11T06:15:06.476Z,70.62
2022-10-11T06:17:33.142Z,70.43
2022-10-11T06:19:59.832Z,70.51
2022-10-11T06:22:26.740Z,70.42
2022-10-11T06:24:53.380Z,70.51
2022-10-11T06:27:20.098Z,70.59
2022-10-11T06:29:47.017Z,70.48
2022-10-11T06:32:14.353Z,70.45
2022-10-11T06:34:40.971Z,70.71
2022-10-11T06:37:08.009Z,70.46
2022-10-11T06:39:35.058Z,70.49
2022-10-11T06:42:02.209Z,70.46
2022-10-11T06:44:29.421Z,70.46
2022-10-11T06:46:56.164Z,70.55
2022-10-11T06:49:23.616Z,70.41
2022-10-11T06:51:51.028Z,70.63
2022-10-11T06:54:17.856Z,70.54
2022-10-11T06:56:45.787Z,70.71
2022-10-11T06:59:13.525Z,70.80
2022-10-11T07:01:42.002Z,70.66
2022-10-11T07:04:08.738Z,70.83
2022-10-11T07:06:40.443Z,70.75
2022-10-11T07:09:08.085Z,70.85
2022-10-11T07:11:35.435Z,70.66
2022-10-11T07:14:07.423Z,71.09
2022-10-11T07:16:36.077Z,71.06
2022-10-11T07:19:06.046Z,70.78
2022-10-11T07:21:34.598Z,71.00
2022-10-11T07:24:02.006Z,70.92
2022-10-11T07:26:33.745Z,70.89
2022-10-11T07:29:04.355Z,70.91
2022-10-11T07:31:31.879Z,70.58
2022-10-11T07:33:58.553Z,70.70
2022-10-11T07:36:25.946Z,70.83
2022-10-11T07:38:52.753Z,70.62
2022-10-11T07:41:19.838Z,70.62
2022-10-11T07:43:49.513Z,70.76
2022-10-11T07:46:17.337Z,70.63
2022-10-11T07:48:44.046Z,70.66
2022-10-11T07:51:16.507Z,70.62
2022-10-11T07:53:51.443Z,70.58
2022-10-11T07:56:21.254Z,70.43
2022-10-11T07:58:53.464Z,70.34
2022-10-11T08:01:21.042Z,70.46
2022-10-11T08:03:48.577Z,70.36
2022-10-11T08:06:19.601Z,70.41
2022-10-11T08:08:47.633Z,70.47
2022-10-11T08:11:22.548Z,70.36
2022-10-11T08:13:49.156Z,70.49
2022-10-11T08:16:15.797Z,70.49
2022-10-11T08:18:42.347Z,70.54
2022-10-11T08:21:16.320Z,70.38
2022-10-11T08:23:43.374Z,70.64
2022-10-11T08:26:10.542Z,70.37
2022-10-11T08:28:37.264Z,70.68
2022-10-11T08:31:04.248Z,70.58
2022-10-11T08:33:31.199Z,70.73
2022-10-11T08:35:58.546Z,70.85
2022-10-11T08:38:25.123Z,70.86
2022-10-11T08:40:56.941Z,70.48
2022-10-11T08:43:29.726Z,70.74
2022-10-11T08:46:00.127Z,70.42
2022-10-11T08:48:50.412Z,70.62
2022-10-11T08:51:39.974Z,70.60
2022-10-11T08:54:11.872Z,70.60
2022-10-11T08:56:40.109Z,70.65
2022-10-11T08:59:12.669Z,70.57
2022-10-11T09:01:47.543Z,70.54
2022-10-11T09:04:16.307Z,70.80
2022-10-11T09:06:56.167Z,70.88
2022-10-11T09:09:33.509Z,70.96
2022-10-11T09:12:30.989Z,70.75
2022-10-11T09:15:18.183Z,70.68
2022-10-11T09:18:09.356Z,70.50
2022-10-11T09:20:56.478Z,70.60
2022-10-11T09:23:44.317Z,71.26
2022-10-11T09:26:41.064Z,70.89
2022-10-11T09:29:12.417Z,70.76
2022-10-11T09:31:39.198Z,71.22
2022-10-11T09:34:11.626Z,71.16
2022-10-11T09:36:44.808Z,71.16
2022-10-11T09:39:45.895Z,71.09
2022-10-11T09:42:13.016Z,70.90
2022-10-11T09:44:50.808Z,71.38
2022-10-11T09:47:21.637Z,71.16
2022-10-11T09:50:04.213Z,71.07
2022-10-11T09:52:31.034Z,71.33
2022-10-11T09:55:00.681Z,71.33
2022-10-11T09:57:36.024Z,70.95
2022-10-11T10:00:15.682Z,70.75
2022-10-11T10:02:47.183Z,70.67
2022-10-11T10:05:18.276Z,70.46
2022-10-11T10:08:23.096Z,70.12
2022-10-11T10:11:05.419Z,70.02
2022-10-11T10:13:56.019Z,70.18
2022-10-11T10:16:29.908Z,70.20
2022-10-11T10:19:25.932Z,69.70
2022-10-11T10:21:55.153Z,70.16
2022-10-11T10:24:30.528Z,70.01
2022-10-11T10:27:21.026Z,69.87
2022-10-11T10:30:08.857Z,69.73
2022-10-11T10:33:03.593Z,69.87
2022-10-11T10:35:45.596Z,69.99
2022-10-11T10:38:32.937Z,69.69
2022-10-11T10:41:06.645Z,69.67
2022-10-11T10:43:35.973Z,69.75
2022-10-11T10:46:25.549Z,69.28
2022-10-11T10:49:41.613Z,69.14
2022-10-11T10:52:09.286Z,69.10
2022-10-11T10:54:48.768Z,69.04
2022-10-11T10:57:26.046Z,68.81
2022-10-11T11:00:14.600Z,68.73
2022-10-11T11:02:53.745Z,68.78
2022-10-11T11:05:57.681Z,68.37
2022-10-11T11:08:49.524Z,68.34
2022-10-11T11:11:21.917Z,68.47
2022-10-11T11:13:58.587Z,68.20
2022-10-11T11:16:30.965Z,68.20
2022-10-11T11:19:08.479Z,67.86
2022-10-11T11:22:11.077Z,67.48
2022-10-11T11:24:50.657Z,67.88
2022-10-11T11:27:41.637Z,67.80
2022-10-11T11:30:36.677Z,67.60
2022-10-11T11:33:48.475Z,67.53
2022-10-11T11:36:23.801Z,67.74
2022-10-11T11:39:00.114Z,67.42
2022-10-11T11:41:33.246Z,67.71
2022-10-11T11:44:26.452Z,67.26
2022-10-11T11:47:03.323Z,67.21
2022-10-11T11:49:41.376Z,67.25
2022-10-11T11:52:16.298Z,67.40
2022-10-11T11:54:51.905Z,67.35
2022-10-11T11:58:07.122Z,67.18
2022-10-11T12:04:31.927Z,67.22
2022-10-11T12:07:15.848Z,67.38
2022-10-11T12:09:46.564Z,67.21
2022-10-11T12:12:39.396Z,66.67
2022-10-11T12:15:26.755Z,66.99
2022-10-11T12:17:53.122Z,67.08
2022-10-11T12:20:38.584Z,66.78
2022-10-11T12:23:30.763Z,66.49
2022-10-11T12:26:28.257Z,66.49
2022-10-11T12:29:27.407Z,66.47
2022-10-11T12:32:01.243Z,66.03
2022-10-11T12:37:19.480Z,65.85
2022-10-11T12:39:54.460Z,65.82
2022-10-11T12:42:25.471Z,65.72
2022-10-11T12:45:10.645Z,65.14
2022-10-11T12:47:46.704Z,65.59
2022-10-11T12:50:22.804Z,65.65
2022-10-11T12:53:12.033Z,65.81
2022-10-11T12:55:59.870Z,65.51
2022-10-11T12:58:29.812Z,65.65
2022-10-11T13:00:57.746Z,65.84
2022-10-11T13:03:33.496Z,65.76
2022-10-11T13:06:10.421Z,65.60
2022-10-11T13:08:43.059Z,65.56
2022-10-11T13:11:16.325Z,65.65
2022-10-11T13:13:49.643Z,65.58
2022-10-11T13:16:23.879Z,65.09
2022-10-11T13:18:56.159Z,65.30
2022-10-11T13:21:36.145Z,65.29
2022-10-11T13:24:11.734Z,65.16
2022-10-11T13:26:38.763Z,65.38
2022-10-11T13:29:15.430Z,65.19
2022-10-11T13:31:44.650Z,65.06
2022-10-11T13:34:12.740Z,65.17
2022-10-11T13:36:40.795Z,65.04
2022-10-11T13:39:07.838Z,65.16
2022-10-11T13:41:35.237Z,65.11
2022-10-11T13:44:03.575Z,65.01
2022-10-11T13:46:31.517Z,64.96
2022-10-11T13:49:00.430Z,65.16
2022-10-11T13:51:30.556Z,64.91
2022-10-11T13:54:06.170Z,64.78
2022-10-11T13:56:41.979Z,64.75
2022-10-11T13:59:18.497Z,64.56
2022-10-11T14:01:46.250Z,64.69
2022-10-11T14:04:17.629Z,64.55
2022-10-11T14:06:52.318Z,64.40
2022-10-11T14:09:23.223Z,64.74
2022-10-11T14:11:50.326Z,64.69
2022-10-11T14:14:35.584Z,64.71
2022-10-11T14:17:06.566Z,64.66
2022-10-11T14:19:32.942Z,64.69
2022-10-11T14:21:59.361Z,64.72
2022-10-11T14:24:25.787Z,64.59
2022-10-11T14:26:54.736Z,64.67
2022-10-11T14:29:25.723Z,64.38
2022-10-11T14:31:56.603Z,64.73
2022-10-11T14:34:25.650Z,64.59
2022-10-11T14:36:53.538Z,64.84
2022-10-11T14:39:22.656Z,64.76
2022-10-11T14:41:50.281Z,65.14
2022-10-11T14:44:17.496Z,64.99
2022-10-11T14:46:45.615Z,64.99
2022-10-11T14:49:28.637Z,64.92
2022-10-11T14:51:57.578Z,64.98
2022-10-11T14:54:25.884Z,65.00
2022-10-11T14:56:54.719Z,65.00
2022-10-11T14:59:24.081Z,65.12
2022-10-11T15:01:53.424Z,65.03
2022-10-11T15:04:21.860Z,65.15
2022-10-11T15:06:51.162Z,65.13
2022-10-11T15:09:20.766Z,65.05
2022-10-11T15:11:48.945Z,65.19
2022-10-11T15:14:16.071Z,65.23
2022-10-11T15:16:42.952Z,65.32
2022-10-11T15:19:24.984Z,65.14
2022-10-11T15:21:52.726Z,65.09
2022-10-11T15:24:22.439Z,65.30
2022-10-11T15:26:49.483Z,65.33
2022-10-11T15:29:17.846Z,65.20
2022-10-11T15:31:45.801Z,65.35
2022-10-11T15:34:12.351Z,65.28
2022-10-11T15:36:39.029Z,65.28
2022-10-11T15:39:24.246Z,65.32
2022-10-11T15:41:50.696Z,65.35
2022-10-11T15:44:17.093Z,65.48
2022-10-11T15:46:43.775Z,65.43
2022-10-11T15:49:13.672Z,65.39
2022-10-11T15:51:40.609Z,65.40
2022-10-11T15:54:07.143Z,65.36
2022-10-11T15:56:33.961Z,65.42
2022-10-11T15:59:00.548Z,65.29
2022-10-11T16:01:27.226Z,65.21
2022-10-11T16:03:53.853Z,65.23
2022-10-11T16:06:20.760Z,65.34
2022-10-11T16:08:47.874Z,65.37
2022-10-11T16:11:14.892Z,65.40
2022-10-11T16:13:41.490Z,65.41
2022-10-11T16:16:08.992Z,65.30
2022-10-11T16:18:36.385Z,65.24
2022-10-11T16:21:07.859Z,65.30
2022-10-11T16:23:34.881Z,65.32
2022-10-11T16:26:05.182Z,65.41
2022-10-11T16:28:32.485Z,65.53
2022-10-11T16:30:59.187Z,65.37
2022-10-11T16:33:26.592Z,65.36
2022-10-11T16:35:53.102Z,65.48
2022-10-11T16:38:19.616Z,65.49
2022-10-11T16:40:46.031Z,65.54
2022-10-11T16:43:12.481Z,65.66
2022-10-11T16:45:38.993Z,65.66
2022-10-11T16:48:05.598Z,65.52
2022-10-11T16:50:36.864Z,65.61
2022-10-11T16:53:05.598Z,65.55
2022-10-11T16:55:32.098Z,65.65
2022-10-11T16:57:58.751Z,65.57
2022-10-11T17:00:25.262Z,65.50
2022-10-11T17:02:51.885Z,65.62
2022-10-11T17:05:18.370Z,65.45
2022-10-11T17:07:44.957Z,65.60
2022-10-11T17:10:11.511Z,65.57
2022-10-11T17:12:38.666Z,65.52
2022-10-11T17:15:06.209Z,65.39
2022-10-11T17:17:32.663Z,65.40
2022-10-11T17:19:59.070Z,65.50
2022-10-11T17:22:25.911Z,65.53
2022-10-11T17:24:53.504Z,65.54
2022-10-11T17:27:19.969Z,65.41
2022-10-11T17:29:46.474Z,65.40
2022-10-11T17:32:12.960Z,65.26
2022-10-11T17:34:39.411Z,65.65
2022-10-11T17:37:06.207Z,65.44
2022-10-11T17:39:32.650Z,65.46
2022-10-11T17:42:03.287Z,65.72
2022-10-11T17:44:29.785Z,65.66
2022-10-11T17:46:56.293Z,65.64
2022-10-11T17:49:22.705Z,65.71
2022-10-11T17:51:49.132Z,65.84
2022-10-11T17:54:16.310Z,65.71
2022-10-11T17:56:42.806Z,65.64
2022-10-11T17:59:15.668Z,65.67
2022-10-11T18:01:43.816Z,65.77
2022-10-11T18:04:16.414Z,65.65
2022-10-11T18:06:45.000Z,65.71
2022-10-11T18:09:13.479Z,65.84
2022-10-11T18:11:40.305Z,65.80
2022-10-11T18:14:07.379Z,65.73
2022-10-11T18:16:36.635Z,65.67
2022-10-11T18:19:09.880Z,65.52
2022-10-11T18:21:37.710Z,65.86
2022-10-11T18:24:07.739Z,65.80
2022-10-11T18:26:34.288Z,65.84
2022-10-11T18:29:00.992Z,65.86
2022-10-11T18:31:30.536Z,65.76
2022-10-11T18:33:58.613Z,65.85
2022-10-11T18:36:28.132Z,65.70
2022-10-11T18:38:57.426Z,65.61
2022-10-11T18:41:30.407Z,65.75
2022-10-11T18:43:59.366Z,65.86
2022-10-11T18:46:26.100Z,65.74
2022-10-11T18:48:55.066Z,65.78
2022-10-11T18:51:27.134Z,65.91
2022-10-11T18:53:54.640Z,65.84
2022-10-11T18:56:24.053Z,65.75
2022-10-11T18:58:53.548Z,65.82
2022-10-11T19:01:25.815Z,65.86
2022-10-11T19:03:56.378Z,66.16
2022-10-11T19:06:26.222Z,66.09
2022-10-11T19:08:54.950Z,66.06
2022-10-11T19:11:22.722Z,66.05
2022-10-11T19:13:55.462Z,66.12
2022-10-11T19:16:21.996Z,65.90
2022-10-11T19:18:50.065Z,66.09
2022-10-11T19:21:16.757Z,66.05
2022-10-11T19:23:45.876Z,66.02
2022-10-11T19:26:15.208Z,66.17
2022-10-11T19:28:42.416Z,66.38
2022-10-11T19:31:11.438Z,65.99
2022-10-11T19:33:37.818Z,66.03
2022-10-11T19:36:05.682Z,66.06
2022-10-11T19:38:35.877Z,66.14
2022-10-11T19:41:04.653Z,66.09
2022-10-11T19:43:31.966Z,66.09
2022-10-11T19:46:06.635Z,66.00
2022-10-11T19:48:37.629Z,66.11
2022-10-11T19:51:05.771Z,66.29
2022-10-11T19:53:32.849Z,66.23
2022-10-11T19:56:04.988Z,66.02
2022-10-11T19:58:31.471Z,66.15
2022-10-11T20:01:10.481Z,65.98
2022-10-11T20:03:37.893Z,66.10
2022-10-11T20:06:07.077Z,66.23
2022-10-11T20:08:34.525Z,66.15
2022-10-11T20:11:03.783Z,66.32
2022-10-11T20:13:34.699Z,66.15
2022-10-11T20:16:04.688Z,66.32
2022-10-11T20:18:31.582Z,66.28
2022-10-11T20:21:00.955Z,66.27
2022-10-11T20:23:27.937Z,66.38
2022-10-11T20:26:09.186Z,66.29
2022-10-11T20:28:36.520Z,66.46
2022-10-11T20:31:10.453Z,66.68
2022-10-11T20:33:37.706Z,66.39
2022-10-11T20:36:08.321Z,66.46
2022-10-11T20:38:36.341Z,66.57
2022-10-11T20:41:07.925Z,66.41
2022-10-11T20:43:34.685Z,66.38
2022-10-11T20:46:07.220Z,66.53
2022-10-11T20:48:35.375Z,66.65
2022-10-11T20:51:02.465Z,66.51
2022-10-11T20:53:29.342Z,66.66
2022-10-11T20:55:56.715Z,66.48
2022-10-11T20:58:23.755Z,66.79
2022-10-11T21:00:50.246Z,66.68
2022-10-11T21:03:17.372Z,66.57
2022-10-11T21:05:44.205Z,66.51
2022-10-11T21:08:10.932Z,66.58
2022-10-11T21:10:37.863Z,66.62
2022-10-11T21:13:04.837Z,66.60
2022-10-11T21:15:32.107Z,66.35
2022-10-11T21:17:59.623Z,66.43
2022-10-11T21:20:26.247Z,66.62
2022-10-11T21:22:52.835Z,66.44
2022-10-11T21:25:19.305Z,66.32
2022-10-11T21:27:45.839Z,66.43
2022-10-11T21:30:12.323Z,66.62
2022-10-11T21:32:38.747Z,66.58
2022-10-11T21:35:05.270Z,66.51
2022-10-11T21:37:31.937Z,66.58
2022-10-11T21:39:59.065Z,66.38
2022-10-11T21:42:29.860Z,66.52
2022-10-11T21:44:58.831Z,66.77
2022-10-11T21:47:26.000Z,66.72
2022-10-11T21:49:52.712Z,66.73
2022-10-11T21:52:19.598Z,66.66
2022-10-11T21:54:46.564Z,66.75
2022-10-11T21:57:13.051Z,67.00
2022-10-11T21:59:39.691Z,66.59
2022-10-11T22:02:06.258Z,66.93
2022-10-11T22:04:32.728Z,67.10
2022-10-11T22:06:59.126Z,67.11
2022-10-11T22:09:27.768Z,67.08
2022-10-11T22:11:54.333Z,67.24
2022-10-11T22:14:20.863Z,67.29
2022-10-11T22:16:47.967Z,67.26
2022-10-11T22:19:14.389Z,67.29
2022-10-11T22:21:44.916Z,67.49
2022-10-11T22:24:12.097Z,67.49
2022-10-11T22:26:38.534Z,67.43
2022-10-11T22:29:04.950Z,67.47
2022-10-11T22:31:31.484Z,67.46
2022-10-11T22:33:59.963Z,67.58
2022-10-11T22:36:28.886Z,67.53
2022-10-11T22:38:55.365Z,67.66
2022-10-11T22:41:22.383Z,67.56
2022-10-11T22:43:49.191Z,67.46
2022-10-11T22:46:16.146Z,67.71
2022-10-11T22:48:42.995Z,67.61
2022-10-11T22:51:09.591Z,67.63
2022-10-11T22:53:35.988Z,67.65
2022-10-11T22:56:02.409Z,67.76
2022-10-11T22:58:28.864Z,67.75
2022-10-11T23:00:55.267Z,67.80
2022-10-11T23:03:21.801Z,67.83
2022-10-11T23:05:56.307Z,67.66
2022-10-11T23:08:22.863Z,67.91
2022-10-11T23:10:49.299Z,67.75
2022-10-11T23:13:15.810Z,67.93
2022-10-11T23:15:42.330Z,67.76
2022-10-11T23:18:08.753Z,67.56
2022-10-11T23:20:35.173Z,67.97
2022-10-11T23:23:01.575Z,67.77
2022-10-11T23:25:27.995Z,67.96
2022-10-11T23:27:54.399Z,68.12
2022-10-11T23:30:20.794Z,68.10
2022-10-11T23:32:47.258Z,68.08
2022-10-11T23:35:13.764Z,67.96
2022-10-11T23:37:40.322Z,68.08
2022-10-11T23:40:07.886Z,68.13
2022-10-11T23:42:34.254Z,67.97
2022-10-11T23:45:00.678Z,68.08
2022-10-11T23:47:27.066Z,67.89
2022-10-11T23:49:53.474Z,68.12
2022-10-11T23:52:19.885Z,68.14
2022-10-11T23:54:46.358Z,67.96
2022-10-11T23:57:12.869Z,68.20
2022-10-11T23:59:39.292Z,68.04
